SVPL1: Red River at Shreveport Site 2

                                SHEF ID:       SVPL1     Red River at Shreveport Site 2
STATION TYPE:

PRECIP STAGE RIV-FLOW VOLTAGE
in ft cfs volt
Ccp-Rev Ccp-Rev Ccp-Rev Ccp-Rev
(America/Chicago)
07/25 00:00 0.00 13.77 1988 12.85
07/25 01:00 0.00 13.72 1768 12.84
07/25 02:00 0.00 13.79 2076 12.83
07/25 03:00 0.00 13.78 2032 12.82
07/25 04:00 0.00 13.78 2032 12.80
07/25 05:00 0.00 13.76 1944 12.80
07/25 06:00 0.00 13.84 2296 12.78
07/25 07:00 0.00 13.69 1636 12.82
07/25 08:00 0.00 13.84 2296 12.92
07/25 09:00 0.00 13.81 2164 13.21
07/25 10:00 0.00 13.73 1812 13.08
07/25 11:00 0.00 13.76 1944 13.09
07/25 12:00 0.00 13.69 1636 13.07
07/25 13:00 0.00 13.79 2076 13.09
07/25 14:00 0.00 13.72 1768 13.08
07/25 15:00 0.00 13.65 1460 13.08
07/25 16:00 0.00 13.61 1284 13.07
07/25 17:00 0.00 13.71 1724 13.06
07/25 18:00 0.00 13.73 1812 13.07
07/25 19:00 0.00 13.71 1724 12.93
07/25 20:00 0.00 13.70 1680 12.90
07/25 21:00 0.00 13.61 1284 12.87
07/25 22:00 0.00 13.56 1064 12.86
07/25 23:00 0.00 13.61 1284 12.87
Data processed at Sun 26Jul2026 04:24 GMT

NOTICE: If you are parsing this page

Please convert to using our Data API. Starting early 2026 we will be migrating to: https://water.usace.army.mil with modern pages rendered in JavaScript. When this migration completes you will no longer be able to scrape this page! CWMSDataAPI (CDA)

Timeseries IDs (TSIDs)

TSIDs used from left to right in the data table
SHRE.Precip-Inc.Total.1Hour.1Hour.Ccp-Rev
SHRE.Stage.Inst.1Hour.0.Ccp-Rev
SHRE.Flow.Inst.1Hour.0.Ccp-Rev
SHRE.Volt-Battery.Inst.1Hour.0.Ccp-Rev

                            

All information presented herein is the property of the government of the United States of America and may be revised or deleted at any time without prior notice. Dissemination of this information without the expressed written consent of the Public Affairs Office, Tulsa District U.S. Army Corps of Engineers is strictly prohibited. These data are gathered electronically and, as presented, have NOT undergone any form of quality control. These data are NOT guaranteed to be valid or correct.